createdAt,value
2023-02-27T00:00:07.490Z,1.3
2023-02-27T00:01:21.903Z,1.5
2023-02-27T00:02:36.223Z,1.3
2023-02-27T00:03:50.522Z,2
2023-02-27T00:05:04.792Z,1.8
2023-02-27T00:06:19.210Z,1.2
2023-02-27T00:07:33.519Z,1.4
2023-02-27T00:08:47.810Z,1.3
2023-02-27T00:10:02.084Z,1.6
2023-02-27T00:11:16.497Z,1.6
2023-02-27T00:12:30.813Z,1.6
2023-02-27T00:13:45.100Z,1.2
2023-02-27T00:14:59.390Z,1.3
2023-02-27T00:16:13.786Z,1.3
2023-02-27T00:17:28.127Z,1.5
2023-02-27T00:18:42.410Z,1.5
2023-02-27T00:19:56.691Z,1.2
2023-02-27T00:21:11.089Z,1.5
2023-02-27T00:22:25.406Z,1.7
2023-02-27T00:23:39.703Z,1.3
2023-02-27T00:24:53.972Z,1.6
2023-02-27T00:26:08.383Z,1.4
2023-02-27T00:27:22.703Z,1
2023-02-27T00:28:36.996Z,1.3
2023-02-27T00:29:51.327Z,1.6
2023-02-27T00:31:05.745Z,1.4
2023-02-27T00:32:20.082Z,1.1
2023-02-27T00:33:33.429Z,1
2023-02-27T00:34:47.717Z,1.1
2023-02-27T00:36:02.121Z,1.5
2023-02-27T00:37:16.440Z,0.9
2023-02-27T00:38:30.715Z,1.3
2023-02-27T00:39:45.001Z,1
2023-02-27T00:40:59.405Z,1.6
2023-02-27T00:42:13.728Z,0.8
2023-02-27T00:44:42.473Z,1.4
2023-02-27T00:45:56.885Z,1.2
2023-02-27T00:47:11.277Z,1.2
2023-02-27T00:48:25.597Z,1.3
2023-02-27T00:49:39.892Z,1.3
2023-02-27T00:50:54.160Z,1.2
2023-02-27T00:52:08.567Z,1.4
2023-02-27T00:53:22.905Z,1.4
2023-02-27T00:54:37.185Z,1.3
2023-02-27T00:55:51.467Z,1.1
2023-02-27T00:57:05.873Z,1.4
2023-02-27T00:58:20.200Z,1.3
2023-02-27T00:59:34.471Z,1.1
2023-02-27T01:00:48.764Z,0.9
2023-02-27T01:02:03.168Z,1.3
2023-02-27T01:03:17.488Z,1.1
2023-02-27T01:04:31.773Z,1.5
2023-02-27T01:05:46.205Z,1.1
2023-02-27T01:07:00.606Z,1.4
2023-02-27T01:08:14.930Z,1.2
2023-02-27T01:10:43.489Z,1.3
2023-02-27T01:11:57.902Z,1.4
2023-02-27T01:13:12.223Z,1.3
2023-02-27T01:14:26.501Z,1
2023-02-27T01:15:40.789Z,1.5
2023-02-27T01:16:55.201Z,1.5
2023-02-27T01:18:09.530Z,1.1
2023-02-27T01:19:23.793Z,1.1
2023-02-27T01:20:38.122Z,1.7
2023-02-27T01:21:52.416Z,1.2
2023-02-27T01:23:06.811Z,1.3
2023-02-27T01:24:21.142Z,1.4
2023-02-27T01:25:35.430Z,1
2023-02-27T01:26:49.714Z,1.5
2023-02-27T01:28:04.118Z,1.3
2023-02-27T01:29:18.448Z,1.2
2023-02-27T01:30:32.712Z,0.9
2023-02-27T01:31:47.012Z,1.3
2023-02-27T01:33:01.407Z,1.4
2023-02-27T01:34:15.733Z,1.8
2023-02-27T01:35:30.011Z,1.2
2023-02-27T01:36:44.360Z,1.1
2023-02-27T01:37:58.754Z,1.2
2023-02-27T01:39:13.104Z,0.8
2023-02-27T01:40:26.443Z,1.3
2023-02-27T01:41:40.742Z,1.3
2023-02-27T01:42:55.141Z,1
2023-02-27T01:44:09.473Z,1.3
2023-02-27T01:45:23.754Z,1
2023-02-27T01:46:38.028Z,1.1
2023-02-27T01:47:52.437Z,1.1
2023-02-27T01:49:06.773Z,1
2023-02-27T01:50:21.052Z,1.2
2023-02-27T01:51:35.323Z,1.3
2023-02-27T01:52:49.736Z,1.3
2023-02-27T01:54:04.053Z,0.9
2023-02-27T01:55:18.339Z,1
2023-02-27T01:56:32.629Z,0.9
2023-02-27T01:57:47.023Z,0.9
2023-02-27T01:59:01.351Z,1.2
2023-02-27T02:00:15.641Z,1.3
2023-02-27T02:01:29.924Z,0.8
2023-02-27T02:02:44.328Z,1.4
2023-02-27T02:03:58.652Z,1.3
2023-02-27T02:05:12.941Z,1.4
2023-02-27T02:06:27.222Z,1.3
2023-02-27T02:07:41.620Z,0.9
2023-02-27T02:08:55.941Z,1.3
2023-02-27T02:10:10.237Z,1.1
2023-02-27T02:11:24.573Z,1.2
2023-02-27T02:12:38.973Z,1.3
2023-02-27T02:13:53.314Z,1
2023-02-27T02:15:06.657Z,1.2
2023-02-27T02:16:20.953Z,1.7
2023-02-27T02:17:35.354Z,1
2023-02-27T02:18:49.671Z,1.4
2023-02-27T02:20:03.952Z,1.2
2023-02-27T02:21:18.370Z,1.1
2023-02-27T02:22:32.776Z,1
2023-02-27T02:23:47.099Z,1.7
2023-02-27T02:25:01.383Z,1.2
2023-02-27T02:26:15.670Z,1
2023-02-27T02:27:30.072Z,0.9
2023-02-27T02:28:44.394Z,0.9
2023-02-27T02:29:58.666Z,1.2
2023-02-27T02:31:12.965Z,1.1
2023-02-27T02:32:27.358Z,1.1
2023-02-27T02:33:41.684Z,0.8
2023-02-27T02:34:55.966Z,1.1
2023-02-27T02:36:10.246Z,1.1
2023-02-27T02:37:24.658Z,1.2
2023-02-27T02:38:38.994Z,1.4
2023-02-27T02:39:53.277Z,1.1
2023-02-27T02:41:07.554Z,0.8
2023-02-27T02:42:21.951Z,1.4
2023-02-27T02:43:36.288Z,0.9
2023-02-27T02:44:50.572Z,1.1
2023-02-27T02:46:04.000Z,1.2
2023-02-27T02:47:19.250Z,1.4
2023-02-27T02:48:33.569Z,1.1
2023-02-27T02:49:47.849Z,1.4
2023-02-27T02:52:16.540Z,1.1
2023-02-27T02:53:30.865Z,1.4
2023-02-27T02:54:45.163Z,0.8
2023-02-27T02:55:59.429Z,1.2
2023-02-27T02:57:13.839Z,0.7
2023-02-27T02:58:28.173Z,1.1
2023-02-27T02:59:42.440Z,1.5
2023-02-27T03:00:56.733Z,1.4
2023-02-27T03:02:11.137Z,1.3
2023-02-27T03:03:25.468Z,1.1
2023-02-27T03:04:39.897Z,0.9
2023-02-27T03:05:54.216Z,1
2023-02-27T03:07:08.503Z,0.9
2023-02-27T03:08:22.912Z,1.1
2023-02-27T03:09:37.238Z,1
2023-02-27T03:10:51.510Z,1
2023-02-27T03:12:05.789Z,1
2023-02-27T03:13:20.209Z,1.2
2023-02-27T03:14:34.524Z,1.2
2023-02-27T03:15:48.803Z,1.4
2023-02-27T03:17:03.097Z,1.7
2023-02-27T03:18:17.491Z,1.6
2023-02-27T03:19:31.817Z,1.2
2023-02-27T03:20:46.098Z,1.3
2023-02-27T03:22:00.381Z,1.1
2023-02-27T03:23:14.799Z,1.6
2023-02-27T03:25:43.397Z,1
2023-02-27T03:26:57.682Z,0.7
2023-02-27T03:28:12.092Z,0.9
2023-02-27T03:29:26.410Z,1.2
2023-02-27T03:30:40.697Z,1.5
2023-02-27T03:31:54.973Z,1.4
2023-02-27T03:33:09.392Z,1.2
2023-02-27T03:34:23.708Z,1
2023-02-27T03:35:38.047Z,1
2023-02-27T03:36:51.455Z,1.5
2023-02-27T03:38:05.807Z,1.2
2023-02-27T03:39:19.192Z,0.9
2023-02-27T03:40:33.534Z,1.5
2023-02-27T03:41:47.927Z,1
2023-02-27T03:43:02.263Z,1
2023-02-27T03:44:16.604Z,0.9
2023-02-27T03:45:29.957Z,1.1
2023-02-27T03:46:44.369Z,1.1
2023-02-27T03:47:58.695Z,1.8
2023-02-27T03:49:12.969Z,1
2023-02-27T03:50:27.263Z,1.5
2023-02-27T03:51:41.656Z,1.2
2023-02-27T03:52:55.982Z,1.5
2023-02-27T03:54:10.265Z,1.5
2023-02-27T03:55:24.558Z,1.3
2023-02-27T03:56:38.951Z,1.6
2023-02-27T03:57:53.293Z,1.3
2023-02-27T03:59:07.568Z,1
2023-02-27T04:00:21.851Z,1
2023-02-27T04:01:36.260Z,1.2
2023-02-27T04:02:50.550Z,1
2023-02-27T04:04:04.828Z,1.5
2023-02-27T04:05:19.120Z,1.4
2023-02-27T04:06:33.525Z,1.1
2023-02-27T04:07:47.851Z,1.2
2023-02-27T04:09:02.140Z,1.1
2023-02-27T04:10:16.419Z,1
2023-02-27T04:11:30.829Z,1
2023-02-27T04:12:45.136Z,1.2
2023-02-27T04:13:59.435Z,1.2
2023-02-27T04:15:13.714Z,1.1
2023-02-27T04:16:28.177Z,1.3
2023-02-27T04:17:42.507Z,1.3
2023-02-27T04:18:55.862Z,1.1
2023-02-27T04:20:10.155Z,1.2
2023-02-27T04:21:24.557Z,1.8
2023-02-27T04:22:38.882Z,1.2
2023-02-27T04:25:07.446Z,1.4
2023-02-27T04:26:21.851Z,1.5
2023-02-27T04:27:36.172Z,1.1
2023-02-27T04:28:50.449Z,1.5
2023-02-27T04:30:04.732Z,1.3
2023-02-27T04:31:19.148Z,1.6
2023-02-27T04:32:33.480Z,1.4
2023-02-27T04:33:47.763Z,1.4
2023-02-27T04:35:02.041Z,1.2
2023-02-27T04:36:16.437Z,1.6
2023-02-27T04:37:30.761Z,1.8
2023-02-27T04:38:45.172Z,1.8
2023-02-27T04:39:59.490Z,1.8
2023-02-27T04:41:13.787Z,1.4
2023-02-27T04:43:42.510Z,1.7
2023-02-27T04:44:56.790Z,1.6
2023-02-27T04:46:11.074Z,1.5
2023-02-27T04:47:25.492Z,1.7
2023-02-27T04:48:39.812Z,2
2023-02-27T04:49:54.090Z,1.9
2023-02-27T04:51:08.372Z,2.2
2023-02-27T04:52:22.783Z,2.7
2023-02-27T04:53:37.099Z,2
2023-02-27T04:54:51.326Z,1.8
2023-02-27T04:56:05.769Z,1.8
2023-02-27T04:57:20.039Z,1.9
2023-02-27T04:58:34.462Z,2.3
2023-02-27T04:59:48.777Z,2.4
2023-02-27T05:02:17.338Z,2
2023-02-27T05:03:31.741Z,2.1
2023-02-27T05:04:46.071Z,1.7
2023-02-27T05:06:00.355Z,1.6
2023-02-27T05:07:14.647Z,2
2023-02-27T05:08:29.052Z,1.8
2023-02-27T05:09:43.377Z,2.1
2023-02-27T05:10:57.650Z,2.4
2023-02-27T05:12:11.934Z,1.8
2023-02-27T05:13:26.346Z,2.1
2023-02-27T05:14:40.670Z,1.5
2023-02-27T05:15:54.943Z,1.9
2023-02-27T05:17:09.235Z,1.6
2023-02-27T05:18:23.643Z,2.1
2023-02-27T05:19:37.934Z,1.8
2023-02-27T05:20:52.212Z,1.9
2023-02-27T05:22:06.443Z,1.3
2023-02-27T05:23:20.752Z,1.5
2023-02-27T05:24:34.987Z,0.9
2023-02-27T05:25:49.224Z,1.2
2023-02-27T05:27:03.503Z,1.2
2023-02-27T05:28:16.840Z,1.7
2023-02-27T05:29:31.125Z,1.3
2023-02-27T05:30:44.414Z,1.3
2023-02-27T05:31:58.641Z,1.6
2023-02-27T05:33:12.956Z,1.5
2023-02-27T05:34:27.183Z,1.5
2023-02-27T05:35:41.410Z,1.3
2023-02-27T05:36:55.645Z,1.4
2023-02-27T05:38:09.866Z,1.5
2023-02-27T05:39:24.226Z,1.7
2023-02-27T05:40:38.541Z,1.6
2023-02-27T05:41:52.838Z,1.9
2023-02-27T05:43:07.117Z,1.3
2023-02-27T05:44:21.520Z,1.8
2023-02-27T05:45:35.848Z,1.7
2023-02-27T05:46:50.138Z,1.5
2023-02-27T05:48:04.356Z,2
2023-02-27T05:49:18.651Z,1.2
2023-02-27T05:50:32.989Z,1.5
2023-02-27T05:51:47.245Z,1.6
2023-02-27T05:53:01.461Z,1.6
2023-02-27T05:54:15.698Z,1.9
2023-02-27T05:55:29.924Z,1.7
2023-02-27T05:56:44.226Z,1.5
2023-02-27T05:57:58.474Z,1.4
2023-02-27T05:59:12.693Z,1.6
2023-02-27T06:00:26.927Z,1.2
2023-02-27T06:01:41.207Z,2.3
2023-02-27T06:02:55.505Z,1.7
2023-02-27T06:04:09.786Z,1.6
2023-02-27T06:05:23.086Z,1.3
2023-02-27T06:06:37.307Z,1.2
2023-02-27T06:07:51.624Z,1.9
2023-02-27T06:09:05.849Z,1.7
2023-02-27T06:10:20.093Z,1.7
2023-02-27T06:11:34.306Z,1.6
2023-02-27T06:12:48.530Z,2
2023-02-27T06:14:02.836Z,1.7
2023-02-27T06:15:17.080Z,1.2
2023-02-27T06:16:31.302Z,1.7
2023-02-27T06:17:45.657Z,1.6
2023-02-27T06:18:59.898Z,2.2
2023-02-27T06:20:14.180Z,2
2023-02-27T06:21:28.434Z,1.6
2023-02-27T06:22:42.667Z,2.4
2023-02-27T06:23:56.884Z,1.9
2023-02-27T06:25:11.114Z,1.7
2023-02-27T06:26:25.423Z,2.1
2023-02-27T06:27:39.662Z,1.9
2023-02-27T06:28:53.889Z,2
2023-02-27T06:30:08.110Z,1.6
2023-02-27T06:31:22.347Z,1.3
2023-02-27T06:32:36.635Z,1.7
2023-02-27T06:33:50.878Z,1.6
2023-02-27T06:35:05.118Z,1.3
2023-02-27T06:36:19.328Z,1.8
2023-02-27T06:37:33.570Z,1.4
2023-02-27T06:40:02.109Z,1.5
2023-02-27T06:41:16.335Z,1.9
2023-02-27T06:42:30.554Z,1.6
2023-02-27T06:43:44.793Z,1.5
2023-02-27T06:44:59.099Z,1.8
2023-02-27T06:46:13.330Z,1.4
2023-02-27T06:47:27.553Z,1.5
2023-02-27T06:48:41.785Z,2.3
2023-02-27T06:49:56.026Z,1.3
2023-02-27T06:51:10.324Z,1.4
2023-02-27T06:52:24.556Z,2.1
2023-02-27T06:53:38.788Z,2
2023-02-27T06:54:53.011Z,2.3
2023-02-27T06:56:07.245Z,1.7
2023-02-27T06:57:21.551Z,2.1
2023-02-27T06:58:35.783Z,1.9
2023-02-27T06:59:50.004Z,2.3
2023-02-27T07:01:04.242Z,1.5
2023-02-27T07:02:18.467Z,1.6
2023-02-27T07:03:32.819Z,2.3
2023-02-27T07:04:47.120Z,2
2023-02-27T07:06:00.438Z,1.8
2023-02-27T07:07:13.735Z,1.9
2023-02-27T07:08:27.983Z,1.9
2023-02-27T07:09:42.222Z,2.1
2023-02-27T07:10:56.446Z,1.9
2023-02-27T07:12:10.666Z,2.3
2023-02-27T07:13:24.966Z,2.1
2023-02-27T07:14:39.207Z,1.9
2023-02-27T07:15:53.443Z,2.1
2023-02-27T07:17:07.674Z,2.3
2023-02-27T07:20:50.430Z,2.8
2023-02-27T07:22:04.662Z,2.5
2023-02-27T07:23:18.885Z,2.5
2023-02-27T07:24:33.125Z,2.7
2023-02-27T07:25:47.428Z,2.7
2023-02-27T07:27:01.670Z,2.2
2023-02-27T07:28:15.888Z,2.2
2023-02-27T07:29:30.115Z,2.5
2023-02-27T07:30:44.344Z,2.2
2023-02-27T07:31:58.651Z,1.9
2023-02-27T07:33:12.885Z,2.3
2023-02-27T07:34:27.115Z,2.8
2023-02-27T07:35:41.341Z,2.8
2023-02-27T07:36:55.575Z,2.5
2023-02-27T07:38:09.937Z,2.4
2023-02-27T07:39:24.207Z,2
2023-02-27T07:40:37.544Z,2.1
2023-02-27T07:41:50.855Z,2.3
2023-02-27T07:43:05.092Z,2.8
2023-02-27T07:44:19.321Z,2.1
2023-02-27T07:45:33.554Z,2.3
2023-02-27T07:46:47.768Z,2.1
2023-02-27T07:48:02.064Z,2.1
2023-02-27T07:49:16.306Z,2.4
2023-02-27T07:50:30.537Z,2.4
2023-02-27T07:51:44.770Z,2
2023-02-27T07:52:58.989Z,2.2
2023-02-27T07:54:13.306Z,2.3
2023-02-27T07:55:27.548Z,2.3
2023-02-27T07:56:41.763Z,2.1
2023-02-27T07:57:55.997Z,2
2023-02-27T07:59:10.341Z,1.9
2023-02-27T08:00:24.641Z,2
2023-02-27T08:01:38.886Z,1.9
2023-02-27T08:02:53.113Z,2.2
2023-02-27T08:04:07.339Z,2.1
2023-02-27T08:05:21.569Z,1.9
2023-02-27T08:06:35.875Z,1.7
2023-02-27T08:07:50.103Z,1.9
2023-02-27T08:09:04.337Z,2.7
2023-02-27T08:10:18.566Z,2.2
2023-02-27T08:11:32.797Z,2.5
2023-02-27T08:12:47.085Z,1.8
2023-02-27T08:14:01.332Z,2.2
2023-02-27T08:15:15.571Z,2.4
2023-02-27T08:16:29.791Z,1.8
2023-02-27T08:17:44.024Z,2.2
2023-02-27T08:18:58.329Z,1.8
2023-02-27T08:20:12.566Z,2.1
2023-02-27T08:21:26.793Z,1.6
2023-02-27T08:22:41.007Z,2.4
2023-02-27T08:25:09.546Z,2.7
2023-02-27T08:26:23.797Z,2.7
2023-02-27T08:27:38.010Z,2
2023-02-27T08:28:52.250Z,1.7
2023-02-27T08:30:06.465Z,1.9
2023-02-27T08:31:20.765Z,2
2023-02-27T08:33:49.231Z,2.4
2023-02-27T08:35:03.474Z,2.4
2023-02-27T08:36:17.688Z,2.2
2023-02-27T08:37:31.998Z,1.8
2023-02-27T08:38:46.242Z,2.2
2023-02-27T08:40:00.467Z,1.9
2023-02-27T08:41:14.686Z,1.9
2023-02-27T08:42:28.915Z,1.7
2023-02-27T08:43:43.217Z,1.5
2023-02-27T08:44:57.516Z,2.1
2023-02-27T08:46:10.862Z,1.5
2023-02-27T08:47:25.130Z,1.7
2023-02-27T08:48:39.446Z,1.5
2023-02-27T08:49:53.712Z,1.6
2023-02-27T08:51:07.007Z,1.5
2023-02-27T08:52:21.250Z,1.8
2023-02-27T08:53:35.536Z,1.9
2023-02-27T08:54:49.780Z,1.6
2023-02-27T08:56:04.018Z,1.6
2023-02-27T08:57:18.234Z,1.4
2023-02-27T08:58:32.459Z,1.8
2023-02-27T08:59:46.773Z,1.6
2023-02-27T09:01:01.013Z,1.5
2023-02-27T09:02:15.242Z,1.5
2023-02-27T09:03:29.457Z,1.8
2023-02-27T09:04:43.681Z,1.6
2023-02-27T09:05:57.992Z,1.3
2023-02-27T09:07:12.233Z,2
2023-02-27T09:08:26.457Z,1.5
2023-02-27T09:09:40.679Z,1.5
2023-02-27T09:10:54.899Z,1.5
2023-02-27T09:13:23.442Z,2
2023-02-27T09:14:37.679Z,1.6
2023-02-27T09:15:51.903Z,1.9
2023-02-27T09:17:06.123Z,1.6
2023-02-27T09:18:20.433Z,1.6
2023-02-27T09:19:34.675Z,1.9
2023-02-27T09:20:48.899Z,1.4
2023-02-27T09:22:03.182Z,1.2
2023-02-27T09:23:16.525Z,1.6
2023-02-27T09:24:30.798Z,1.6
2023-02-27T09:25:44.099Z,2.2
2023-02-27T09:26:58.330Z,1.8
2023-02-27T09:28:12.633Z,1.3
2023-02-27T09:29:26.873Z,1.5
2023-02-27T09:30:41.095Z,1.4
2023-02-27T09:31:55.331Z,1.6
2023-02-27T09:33:09.539Z,1.3
2023-02-27T09:34:23.842Z,1.5
2023-02-27T09:35:38.088Z,1.4
2023-02-27T09:36:52.315Z,1.9
2023-02-27T09:38:06.542Z,1.7
2023-02-27T09:39:20.775Z,1.7
2023-02-27T09:40:35.069Z,1.7
2023-02-27T09:41:49.311Z,1.1
2023-02-27T09:43:03.545Z,1.8
2023-02-27T09:44:17.764Z,1.7
2023-02-27T09:45:31.979Z,1.7
2023-02-27T09:46:46.293Z,2.4
2023-02-27T09:48:00.522Z,1.6
2023-02-27T09:49:14.747Z,3.2
2023-02-27T09:50:28.977Z,2.7
2023-02-27T09:51:43.207Z,2.7
2023-02-27T09:52:57.515Z,1.6
2023-02-27T09:54:11.745Z,1.5
2023-02-27T09:55:25.985Z,1.8
2023-02-27T09:56:40.260Z,1.8
2023-02-27T09:57:53.560Z,1.6
2023-02-27T09:59:07.798Z,1.7
2023-02-27T10:00:22.033Z,1.6
2023-02-27T10:01:36.251Z,1.4
2023-02-27T10:02:50.469Z,1.4
2023-02-27T10:04:04.770Z,1.1
2023-02-27T10:05:19.008Z,1.4
2023-02-27T10:06:33.241Z,1.5
2023-02-27T10:07:47.466Z,1.7
2023-02-27T10:09:01.698Z,1.4
2023-02-27T10:10:16.006Z,1.7
2023-02-27T10:11:30.231Z,1.6
2023-02-27T10:12:44.461Z,1.3
2023-02-27T10:13:58.682Z,1.5
2023-02-27T10:15:12.911Z,1.6
2023-02-27T10:16:27.209Z,1.6
2023-02-27T10:17:41.457Z,1.4
2023-02-27T10:18:55.680Z,1.4
2023-02-27T10:20:09.912Z,1.1
2023-02-27T10:21:24.129Z,1.8
2023-02-27T10:22:38.437Z,1.3
2023-02-27T10:23:52.685Z,1.2
2023-02-27T10:25:06.912Z,1.5
2023-02-27T10:26:21.139Z,1.7
2023-02-27T10:27:35.359Z,1.3
2023-02-27T10:28:49.726Z,1.3
2023-02-27T10:30:04.010Z,1.6
2023-02-27T10:31:18.283Z,1.6
2023-02-27T10:32:31.578Z,1.5
2023-02-27T10:33:45.885Z,1.6
2023-02-27T10:35:00.133Z,1.6
2023-02-27T10:36:14.340Z,1.5
2023-02-27T10:37:28.573Z,1.3
2023-02-27T10:38:42.794Z,1.2
2023-02-27T10:39:57.107Z,1.3
2023-02-27T10:41:11.340Z,1.7
2023-02-27T10:42:25.562Z,1.5
2023-02-27T10:43:39.786Z,1.4
2023-02-27T10:44:54.026Z,1.8
2023-02-27T10:46:08.317Z,1.4
2023-02-27T10:47:22.568Z,1.2
2023-02-27T10:48:36.801Z,1.7
2023-02-27T10:49:51.023Z,1.3
2023-02-27T10:51:05.236Z,1.4
2023-02-27T10:52:19.539Z,1.8
2023-02-27T10:53:33.795Z,1.5
2023-02-27T10:54:48.010Z,1.4
2023-02-27T10:56:02.246Z,1.8
2023-02-27T10:57:16.462Z,1.7
2023-02-27T10:58:30.763Z,1.4
2023-02-27T10:59:45.009Z,1.6
2023-02-27T11:00:59.231Z,1
2023-02-27T11:02:13.456Z,1.6
2023-02-27T11:03:27.742Z,2
2023-02-27T11:04:42.051Z,1.5
2023-02-27T11:05:56.333Z,1.6
2023-02-27T11:07:09.626Z,2
2023-02-27T11:08:23.851Z,1.8
2023-02-27T11:09:38.150Z,1.1
2023-02-27T11:10:52.387Z,1.9
2023-02-27T11:12:06.619Z,1
2023-02-27T11:13:20.837Z,1.2
2023-02-27T11:14:35.068Z,1.6
2023-02-27T11:15:49.368Z,1.5
2023-02-27T11:17:03.616Z,1.5
2023-02-27T11:18:17.842Z,1
2023-02-27T11:19:32.070Z,1.4
2023-02-27T11:20:46.283Z,1.2
2023-02-27T11:22:00.584Z,1.3
2023-02-27T11:23:14.826Z,1.1
2023-02-27T11:24:29.061Z,1.1
2023-02-27T11:25:43.285Z,2.1
2023-02-27T11:26:57.511Z,1.5
2023-02-27T11:28:11.803Z,1
2023-02-27T11:29:26.045Z,1.1
2023-02-27T11:30:40.278Z,1.4
2023-02-27T11:31:54.505Z,1.9
2023-02-27T11:33:08.725Z,1.5
2023-02-27T11:34:23.038Z,1.4
2023-02-27T11:36:51.507Z,1.1
2023-02-27T11:38:05.779Z,1.4
2023-02-27T11:39:19.083Z,2.1
2023-02-27T11:40:33.308Z,1.7
2023-02-27T11:41:47.552Z,1.3
2023-02-27T11:43:01.775Z,1.7
2023-02-27T11:45:30.292Z,1.5
2023-02-27T11:46:44.546Z,1.7
2023-02-27T11:47:58.766Z,1.6
2023-02-27T11:49:12.987Z,1.4
2023-02-27T11:50:27.225Z,1.5
2023-02-27T11:51:41.518Z,2.1
2023-02-27T11:52:55.752Z,1
2023-02-27T11:54:09.975Z,1.7
2023-02-27T11:55:24.207Z,1.7
2023-02-27T11:56:38.434Z,1.5
2023-02-27T11:57:52.745Z,1
2023-02-27T11:59:07.000Z,1.9
2023-02-27T12:00:21.224Z,1.7
2023-02-27T12:01:35.444Z,1.5
2023-02-27T12:02:49.673Z,1.3
2023-02-27T12:04:03.975Z,1.1
2023-02-27T12:05:18.210Z,1.2
2023-02-27T12:06:32.430Z,1
2023-02-27T12:07:46.660Z,1
2023-02-27T12:09:00.883Z,1
2023-02-27T12:10:15.256Z,1.4
2023-02-27T12:11:29.535Z,1.8
2023-02-27T12:12:42.834Z,1.5
2023-02-27T12:13:57.057Z,1.7
2023-02-27T12:15:11.358Z,1.9
2023-02-27T12:16:25.586Z,1.3
2023-02-27T12:17:39.813Z,1.6
2023-02-27T12:20:08.274Z,2.1
2023-02-27T12:21:22.582Z,1.4
2023-02-27T12:22:36.823Z,1.7
2023-02-27T12:23:51.036Z,1.5
2023-02-27T12:25:05.267Z,1.6
2023-02-27T12:26:19.485Z,1.4
2023-02-27T12:27:33.785Z,1.3
2023-02-27T12:28:48.041Z,1.2
2023-02-27T12:30:02.265Z,1.6
2023-02-27T12:31:16.492Z,1.3
2023-02-27T12:32:30.716Z,1.2
2023-02-27T12:33:45.012Z,1.4
2023-02-27T12:34:59.260Z,1.6
2023-02-27T12:36:13.490Z,0.9
2023-02-27T12:37:27.700Z,1
2023-02-27T12:38:41.942Z,0.9
2023-02-27T12:39:56.224Z,1
2023-02-27T12:41:10.473Z,1
2023-02-27T12:42:24.691Z,1.1
2023-02-27T12:43:38.981Z,1.2
2023-02-27T12:44:52.313Z,1.4
2023-02-27T12:46:06.594Z,1.8
2023-02-27T12:47:19.960Z,1.6
2023-02-27T12:48:33.282Z,1.7
2023-02-27T12:49:47.567Z,1.3
2023-02-27T12:51:01.848Z,1.3
2023-02-27T12:52:15.147Z,0.9
2023-02-27T12:53:29.446Z,1.6
2023-02-27T12:54:43.697Z,1.4
2023-02-27T12:55:57.923Z,1
2023-02-27T12:57:12.139Z,1.7
2023-02-27T12:58:26.374Z,1.8
2023-02-27T12:59:40.676Z,2.3
2023-02-27T13:00:54.909Z,1
2023-02-27T13:03:23.363Z,2
2023-02-27T13:04:37.598Z,1.5
2023-02-27T13:05:51.881Z,1.9
2023-02-27T13:07:06.130Z,1.7
2023-02-27T13:08:20.358Z,1.5
2023-02-27T13:09:34.587Z,1
2023-02-27T13:10:48.807Z,0.9
2023-02-27T13:12:03.109Z,1.3
2023-02-27T13:13:17.356Z,1.1
2023-02-27T13:14:31.570Z,1
2023-02-27T13:15:45.799Z,1
2023-02-27T13:17:00.034Z,1.1
2023-02-27T13:18:14.331Z,1.2
2023-02-27T13:19:28.567Z,1.2
2023-02-27T13:20:42.792Z,1.2
2023-02-27T13:21:57.026Z,1
2023-02-27T13:23:11.306Z,1.1
2023-02-27T13:24:25.616Z,1
2023-02-27T13:25:39.896Z,1.2
2023-02-27T13:26:53.182Z,1.1
2023-02-27T13:28:07.414Z,1.4
2023-02-27T13:29:21.715Z,1
2023-02-27T13:30:35.954Z,1.2
2023-02-27T13:31:50.180Z,1.4
2023-02-27T13:33:04.401Z,0.8
2023-02-27T13:34:18.627Z,1.8
2023-02-27T13:36:47.177Z,1
2023-02-27T13:38:01.409Z,0.8
2023-02-27T13:39:15.629Z,1
2023-02-27T13:40:29.867Z,1.2
2023-02-27T13:41:44.166Z,1.8
2023-02-27T13:42:58.396Z,1.7
2023-02-27T13:44:12.623Z,2
2023-02-27T13:45:26.854Z,1.3
2023-02-27T13:46:41.077Z,1.6
2023-02-27T13:47:55.373Z,1.6
2023-02-27T13:49:09.621Z,1.8
2023-02-27T13:50:23.847Z,1.6
2023-02-27T13:51:38.199Z,1.8
2023-02-27T13:52:52.426Z,1.8
2023-02-27T13:54:06.735Z,2.2
2023-02-27T13:55:20.966Z,2
2023-02-27T13:56:35.200Z,1.5
2023-02-27T13:57:49.422Z,1.8
2023-02-27T13:59:03.653Z,1.9
2023-02-27T14:00:17.947Z,1.8
2023-02-27T14:01:32.187Z,1.9
2023-02-27T14:02:46.427Z,1.7
2023-02-27T14:04:00.642Z,2.1
2023-02-27T14:05:14.877Z,1.3
2023-02-27T14:06:29.180Z,1.1
2023-02-27T14:07:43.411Z,1.6
2023-02-27T14:08:57.647Z,1.6
2023-02-27T14:10:11.869Z,1.3
2023-02-27T14:11:26.086Z,1.1
2023-02-27T14:12:40.384Z,1.9
2023-02-27T14:13:54.638Z,1.5
2023-02-27T14:15:08.865Z,1.2
2023-02-27T14:16:23.084Z,1.3
2023-02-27T14:17:37.320Z,1.2
2023-02-27T14:18:51.620Z,1.2
2023-02-27T14:20:05.858Z,1.2
2023-02-27T14:21:20.078Z,1.3
2023-02-27T14:22:34.302Z,1
2023-02-27T14:23:48.539Z,1
2023-02-27T14:25:02.834Z,1.1
2023-02-27T14:26:17.081Z,0.9
2023-02-27T14:27:31.291Z,1
2023-02-27T14:28:45.523Z,1.1
2023-02-27T14:29:59.762Z,0.9
2023-02-27T14:31:14.057Z,1.3
2023-02-27T14:32:28.296Z,1
2023-02-27T14:33:42.516Z,1.3
2023-02-27T14:34:56.747Z,1.3
2023-02-27T14:36:10.970Z,0.9
2023-02-27T14:37:25.329Z,1
2023-02-27T14:38:39.619Z,1
2023-02-27T14:39:52.906Z,1.1
2023-02-27T14:41:07.141Z,0.9
2023-02-27T14:42:21.446Z,1
2023-02-27T14:43:35.679Z,1
2023-02-27T14:44:49.916Z,1.4
2023-02-27T14:46:04.133Z,0.7
2023-02-27T14:47:18.369Z,1.1
2023-02-27T14:48:32.667Z,1
2023-02-27T14:49:46.902Z,1.1
2023-02-27T14:51:01.124Z,0.9
2023-02-27T14:52:15.350Z,1.2
2023-02-27T14:53:29.594Z,0.8
2023-02-27T14:54:43.880Z,0.9
2023-02-27T14:55:58.123Z,1.1
2023-02-27T14:57:12.352Z,0.9
2023-02-27T14:58:26.581Z,1
2023-02-27T14:59:40.808Z,1
2023-02-27T15:00:55.100Z,1
2023-02-27T15:02:09.339Z,1.2
2023-02-27T15:03:23.576Z,1.1
2023-02-27T15:04:37.800Z,1.1
2023-02-27T15:05:52.034Z,1.1
2023-02-27T15:07:06.326Z,0.9
2023-02-27T15:08:20.579Z,1
2023-02-27T15:09:34.792Z,1.1
2023-02-27T15:10:49.087Z,1.1
2023-02-27T15:12:02.378Z,1.2
2023-02-27T15:13:16.627Z,1
2023-02-27T15:14:30.847Z,1.2
2023-02-27T15:15:45.065Z,1.4
2023-02-27T15:16:59.297Z,1.2
2023-02-27T15:18:13.607Z,0.9
2023-02-27T15:19:27.854Z,1.4
2023-02-27T15:20:42.065Z,1.1
2023-02-27T15:21:56.287Z,0.9
2023-02-27T15:23:10.526Z,1.2
2023-02-27T15:24:24.829Z,1
2023-02-27T15:25:39.056Z,1.1
2023-02-27T15:26:53.298Z,1.3
2023-02-27T15:28:07.509Z,1
2023-02-27T15:29:21.748Z,0.8
2023-02-27T15:30:36.038Z,1.4
2023-02-27T15:31:50.279Z,1.4
2023-02-27T15:33:04.507Z,1.5
2023-02-27T15:34:18.732Z,1.7
2023-02-27T15:35:32.971Z,1.1
2023-02-27T15:36:47.269Z,1.3
2023-02-27T15:38:01.518Z,1.2
2023-02-27T15:39:15.726Z,1
2023-02-27T15:40:29.971Z,0.8
2023-02-27T15:41:44.183Z,1.9
2023-02-27T15:42:58.555Z,1.1
2023-02-27T15:44:12.823Z,1.5
2023-02-27T15:45:26.166Z,1.3
2023-02-27T15:46:39.462Z,1.2
2023-02-27T15:47:53.696Z,1.2
2023-02-27T15:49:07.929Z,1.4
2023-02-27T15:50:22.153Z,1.2
2023-02-27T15:51:36.390Z,1.3
2023-02-27T15:52:50.685Z,0.9
2023-02-27T15:54:04.925Z,1.1
2023-02-27T15:55:19.150Z,1.1
2023-02-27T15:56:33.378Z,1.3
2023-02-27T15:57:47.610Z,0.9
2023-02-27T15:59:01.913Z,1.3
2023-02-27T16:00:16.150Z,1.1
2023-02-27T16:01:30.379Z,0.8
2023-02-27T16:02:44.608Z,1
2023-02-27T16:03:58.833Z,1
2023-02-27T16:05:13.121Z,1.5
2023-02-27T16:06:27.358Z,1.6
2023-02-27T16:07:41.596Z,1.8
2023-02-27T16:08:55.822Z,3
2023-02-27T16:10:10.042Z,1.9
2023-02-27T16:11:24.340Z,2.4
2023-02-27T16:12:38.598Z,1.4
2023-02-27T16:13:52.819Z,1.2
2023-02-27T16:15:07.034Z,1.2
2023-02-27T16:16:21.273Z,1.2
2023-02-27T16:17:35.640Z,1.2
2023-02-27T16:18:49.910Z,0.9
2023-02-27T16:20:04.202Z,1.1
2023-02-27T16:21:17.498Z,0.9
2023-02-27T16:22:31.788Z,1.3
2023-02-27T16:23:46.042Z,0.9
2023-02-27T16:25:00.257Z,1
2023-02-27T16:26:14.487Z,1
2023-02-27T16:27:28.000Z,1.1
2023-02-27T16:28:43.013Z,0.9
2023-02-27T16:29:57.251Z,1.3
2023-02-27T16:31:11.000Z,1
2023-02-27T16:32:25.713Z,1.3
2023-02-27T16:33:39.937Z,1.7
2023-02-27T16:34:54.243Z,1.1
2023-02-27T16:36:08.487Z,1.2
2023-02-27T16:37:22.697Z,1.3
2023-02-27T16:38:36.929Z,1
2023-02-27T16:39:51.151Z,1.1
2023-02-27T16:41:05.468Z,1.3
2023-02-27T16:42:19.707Z,1.3
2023-02-27T16:43:33.926Z,1
2023-02-27T16:44:48.163Z,1.2
2023-02-27T16:46:02.388Z,1
2023-02-27T16:47:16.675Z,0.9
2023-02-27T16:49:45.153Z,1.1
2023-02-27T16:50:59.377Z,1
2023-02-27T16:52:13.669Z,1.5
2023-02-27T16:53:27.955Z,1.1
2023-02-27T16:54:42.238Z,1.6
2023-02-27T16:55:55.548Z,1.3
2023-02-27T16:57:09.774Z,1.4
2023-02-27T16:58:24.076Z,1.1
2023-02-27T16:59:38.303Z,1.7
2023-02-27T17:00:52.530Z,1.4
2023-02-27T17:02:06.768Z,1.6
2023-02-27T17:03:20.997Z,1.4
2023-02-27T17:04:35.282Z,1.4
2023-02-27T17:05:49.522Z,1.3
2023-02-27T17:07:03.754Z,1
2023-02-27T17:10:46.521Z,1.7
2023-02-27T17:12:00.750Z,1.3
2023-02-27T17:13:14.983Z,1.1
2023-02-27T17:14:29.209Z,1.3
2023-02-27T17:15:43.437Z,1.5
2023-02-27T17:16:57.729Z,1.2
2023-02-27T17:18:11.971Z,1.2
2023-02-27T17:19:26.205Z,1.5
2023-02-27T17:20:40.426Z,1.5
2023-02-27T17:21:54.665Z,1.3
2023-02-27T17:23:08.963Z,1.8
2023-02-27T17:25:37.428Z,2.6
2023-02-27T17:26:51.712Z,2.4
2023-02-27T17:28:05.009Z,2.5
2023-02-27T17:29:19.252Z,2.5
2023-02-27T17:30:33.470Z,2.1
2023-02-27T17:31:47.759Z,1.8
2023-02-27T17:33:02.045Z,1.7
2023-02-27T17:34:16.396Z,1.6
2023-02-27T17:35:30.682Z,1.9
2023-02-27T17:36:44.917Z,1.5
2023-02-27T17:37:59.248Z,1.3